sensor_id;sensor_type;location;lat;lon;timestamp;pressure;altitude;pressure_sealevel;temperature;humidity
64827;BME280;51265;53.972;12.286;2023-05-11T00:00:33;100706.78;;;11.84;100.00
64827;BME280;51265;53.972;12.286;2023-05-11T00:03:00;100697.59;;;11.89;100.00
64827;BME280;51265;53.972;12.286;2023-05-11T00:05:26;100710.06;;;12.14;100.00
64827;BME280;51265;53.972;12.286;2023-05-11T00:07:53;100694.72;;;12.08;100.00
64827;BME280;51265;53.972;12.286;2023-05-11T00:10:19;100696.88;;;12.11;100.00
64827;BME280;51265;53.972;12.286;2023-05-11T00:12:46;100701.25;;;12.12;100.00
64827;BME280;51265;53.972;12.286;2023-05-11T00:15:12;100701.47;;;12.15;100.00
64827;BME280;51265;53.972;12.286;2023-05-11T00:17:38;100709.47;;;12.17;100.00
64827;BME280;51265;53.972;12.286;2023-05-11T00:20:05;100708.44;;;12.13;100.00
64827;BME280;51265;53.972;12.286;2023-05-11T00:22:32;100704.13;;;12.07;100.00
64827;BME280;51265;53.972;12.286;2023-05-11T00:24:58;100708.53;;;12.08;100.00
64827;BME280;51265;53.972;12.286;2023-05-11T00:27:25;100708.94;;;12.15;100.00
64827;BME280;51265;53.972;12.286;2023-05-11T00:29:51;100699.25;;;12.17;100.00
64827;BME280;51265;53.972;12.286;2023-05-11T00:32:17;100701.69;;;12.19;100.00
64827;BME280;51265;53.972;12.286;2023-05-11T00:34:44;100703.41;;;12.15;100.00
64827;BME280;51265;53.972;12.286;2023-05-11T00:37:10;100704.56;;;12.14;100.00
64827;BME280;51265;53.972;12.286;2023-05-11T00:39:37;100702.94;;;12.13;100.00
64827;BME280;51265;53.972;12.286;2023-05-11T00:42:05;100707.81;;;12.16;100.00
64827;BME280;51265;53.972;12.286;2023-05-11T00:44:33;100710.50;;;12.21;100.00
64827;BME280;51265;53.972;12.286;2023-05-11T00:47:00;100705.34;;;12.28;100.00
64827;BME280;51265;53.972;12.286;2023-05-11T00:49:28;100706.16;;;12.29;100.00
64827;BME280;51265;53.972;12.286;2023-05-11T00:51:55;100714.38;;;12.34;100.00
64827;BME280;51265;53.972;12.286;2023-05-11T00:54:23;100717.13;;;12.34;100.00
64827;BME280;51265;53.972;12.286;2023-05-11T00:56:49;100714.06;;;12.35;100.00
64827;BME280;51265;53.972;12.286;2023-05-11T00:59:16;100708.84;;;12.34;100.00
64827;BME280;51265;53.972;12.286;2023-05-11T01:01:42;100715.19;;;12.34;100.00
64827;BME280;51265;53.972;12.286;2023-05-11T01:04:09;100720.59;;;12.39;100.00
64827;BME280;51265;53.972;12.286;2023-05-11T01:06:51;100713.56;;;12.33;100.00
64827;BME280;51265;53.972;12.286;2023-05-11T01:12:22;100709.97;;;12.19;100.00
64827;BME280;51265;53.972;12.286;2023-05-11T01:15:42;100712.31;;;12.12;100.00
64827;BME280;51265;53.972;12.286;2023-05-11T01:17:51;100710.47;;;12.07;100.00
64827;BME280;51265;53.972;12.286;2023-05-11T01:20:24;100710.91;;;12.01;100.00
64827;BME280;51265;53.972;12.286;2023-05-11T01:31:33;100724.06;;;11.90;100.00
64827;BME280;51265;53.972;12.286;2023-05-11T01:34:03;100727.63;;;11.90;100.00
64827;BME280;51265;53.972;12.286;2023-05-11T01:36:36;100731.53;;;11.89;100.00
64827;BME280;51265;53.972;12.286;2023-05-11T01:39:07;100731.31;;;11.86;100.00
64827;BME280;51265;53.972;12.286;2023-05-11T01:41:38;100725.56;;;11.82;100.00
64827;BME280;51265;53.972;12.286;2023-05-11T01:44:08;100727.81;;;11.80;100.00
64827;BME280;51265;53.972;12.286;2023-05-11T01:46:35;100725.75;;;11.72;100.00
64827;BME280;51265;53.972;12.286;2023-05-11T01:49:05;100723.69;;;11.64;100.00
64827;BME280;51265;53.972;12.286;2023-05-11T01:51:35;100728.78;;;11.57;100.00
64827;BME280;51265;53.972;12.286;2023-05-11T01:54:05;100732.44;;;11.52;100.00
64827;BME280;51265;53.972;12.286;2023-05-11T01:56:34;100734.69;;;11.50;100.00
64827;BME280;51265;53.972;12.286;2023-05-11T01:59:01;100733.56;;;11.51;100.00
64827;BME280;51265;53.972;12.286;2023-05-11T02:01:28;100743.44;;;11.38;100.00
64827;BME280;51265;53.972;12.286;2023-05-11T02:03:57;100737.50;;;11.31;100.00
64827;BME280;51265;53.972;12.286;2023-05-11T02:06:26;100738.09;;;11.28;100.00
64827;BME280;51265;53.972;12.286;2023-05-11T02:08:55;100740.94;;;11.23;100.00
64827;BME280;51265;53.972;12.286;2023-05-11T02:11:22;100746.44;;;11.23;100.00
64827;BME280;51265;53.972;12.286;2023-05-11T02:13:50;100741.84;;;11.18;100.00
64827;BME280;51265;53.972;12.286;2023-05-11T02:16:19;100738.84;;;11.15;100.00
64827;BME280;51265;53.972;12.286;2023-05-11T02:18:47;100747.44;;;11.13;100.00
64827;BME280;51265;53.972;12.286;2023-05-11T02:21:15;100748.25;;;11.14;100.00
64827;BME280;51265;53.972;12.286;2023-05-11T02:23:43;100754.81;;;11.18;100.00
64827;BME280;51265;53.972;12.286;2023-05-11T02:26:12;100753.00;;;11.27;100.00
64827;BME280;51265;53.972;12.286;2023-05-11T02:28:40;100755.84;;;11.22;100.00
64827;BME280;51265;53.972;12.286;2023-05-11T02:31:11;100756.44;;;11.19;100.00
64827;BME280;51265;53.972;12.286;2023-05-11T02:33:44;100758.69;;;11.17;100.00
64827;BME280;51265;53.972;12.286;2023-05-11T02:36:16;100762.25;;;11.17;100.00
64827;BME280;51265;53.972;12.286;2023-05-11T02:38:45;100761.94;;;11.19;100.00
64827;BME280;51265;53.972;12.286;2023-05-11T02:41:17;100764.63;;;11.24;100.00
64827;BME280;51265;53.972;12.286;2023-05-11T02:43:50;100764.09;;;11.22;100.00
64827;BME280;51265;53.972;12.286;2023-05-11T02:46:25;100764.25;;;11.31;100.00
64827;BME280;51265;53.972;12.286;2023-05-11T02:48:58;100758.34;;;11.37;100.00
64827;BME280;51265;53.972;12.286;2023-05-11T02:51:35;100760.59;;;11.35;100.00
64827;BME280;51265;53.972;12.286;2023-05-11T02:54:02;100758.72;;;11.31;100.00
64827;BME280;51265;53.972;12.286;2023-05-11T02:56:35;100756.44;;;11.19;100.00
64827;BME280;51265;53.972;12.286;2023-05-11T02:59:02;100756.75;;;11.17;100.00
64827;BME280;51265;53.972;12.286;2023-05-11T03:01:28;100759.78;;;11.16;100.00
64827;BME280;51265;53.972;12.286;2023-05-11T03:03:55;100768.34;;;11.33;100.00
64827;BME280;51265;53.972;12.286;2023-05-11T03:06:24;100765.16;;;11.26;100.00
64827;BME280;51265;53.972;12.286;2023-05-11T03:08:51;100761.25;;;11.27;100.00
64827;BME280;51265;53.972;12.286;2023-05-11T03:11:18;100766.06;;;11.21;100.00
64827;BME280;51265;53.972;12.286;2023-05-11T03:13:47;100758.00;;;11.25;100.00
64827;BME280;51265;53.972;12.286;2023-05-11T03:16:17;100768.13;;;11.30;100.00
64827;BME280;51265;53.972;12.286;2023-05-11T03:18:45;100776.53;;;11.38;100.00
64827;BME280;51265;53.972;12.286;2023-05-11T03:21:14;100775.75;;;11.52;100.00
64827;BME280;51265;53.972;12.286;2023-05-11T03:23:42;100776.22;;;11.72;100.00
64827;BME280;51265;53.972;12.286;2023-05-11T03:26:10;100776.44;;;11.76;100.00
64827;BME280;51265;53.972;12.286;2023-05-11T03:28:39;100765.56;;;11.66;100.00
64827;BME280;51265;53.972;12.286;2023-05-11T03:31:07;100761.72;;;11.67;100.00
64827;BME280;51265;53.972;12.286;2023-05-11T03:33:34;100771.53;;;11.73;100.00
64827;BME280;51265;53.972;12.286;2023-05-11T03:36:02;100761.78;;;11.62;100.00
64827;BME280;51265;53.972;12.286;2023-05-11T03:38:31;100765.75;;;11.56;100.00
64827;BME280;51265;53.972;12.286;2023-05-11T03:40:59;100774.25;;;11.59;100.00
64827;BME280;51265;53.972;12.286;2023-05-11T03:43:29;100770.72;;;11.72;100.00
64827;BME280;51265;53.972;12.286;2023-05-11T03:45:57;100775.50;;;12.00;100.00
64827;BME280;51265;53.972;12.286;2023-05-11T03:48:26;100769.78;;;11.96;100.00
64827;BME280;51265;53.972;12.286;2023-05-11T03:50:52;100772.31;;;11.92;100.00
64827;BME280;51265;53.972;12.286;2023-05-11T03:53:19;100774.41;;;12.14;100.00
64827;BME280;51265;53.972;12.286;2023-05-11T03:55:46;100768.38;;;12.40;100.00
64827;BME280;51265;53.972;12.286;2023-05-11T03:58:13;100768.78;;;12.47;100.00
64827;BME280;51265;53.972;12.286;2023-05-11T04:00:40;100764.28;;;12.51;100.00
64827;BME280;51265;53.972;12.286;2023-05-11T04:03:07;100766.72;;;12.53;100.00
64827;BME280;51265;53.972;12.286;2023-05-11T04:05:34;100762.22;;;12.57;100.00
64827;BME280;51265;53.972;12.286;2023-05-11T04:08:03;100759.84;;;12.64;100.00
64827;BME280;51265;53.972;12.286;2023-05-11T04:10:30;100754.81;;;12.66;100.00
64827;BME280;51265;53.972;12.286;2023-05-11T04:12:57;100759.94;;;12.73;100.00
64827;BME280;51265;53.972;12.286;2023-05-11T04:15:23;100761.28;;;12.75;100.00
64827;BME280;51265;53.972;12.286;2023-05-11T04:17:49;100762.19;;;12.84;100.00
64827;BME280;51265;53.972;12.286;2023-05-11T04:20:16;100776.47;;;13.00;100.00
64827;BME280;51265;53.972;12.286;2023-05-11T04:22:44;100775.81;;;13.17;100.00
64827;BME280;51265;53.972;12.286;2023-05-11T04:25:10;100775.91;;;13.26;100.00
64827;BME280;51265;53.972;12.286;2023-05-11T04:27:36;100766.03;;;13.33;100.00
64827;BME280;51265;53.972;12.286;2023-05-11T04:30:04;100759.00;;;13.27;100.00
64827;BME280;51265;53.972;12.286;2023-05-11T04:32:31;100745.75;;;13.02;100.00
64827;BME280;51265;53.972;12.286;2023-05-11T04:34:58;100749.66;;;13.01;100.00
64827;BME280;51265;53.972;12.286;2023-05-11T04:37:27;100753.09;;;13.06;100.00
64827;BME280;51265;53.972;12.286;2023-05-11T04:39:55;100766.53;;;13.35;100.00
64827;BME280;51265;53.972;12.286;2023-05-11T04:42:21;100755.09;;;13.51;100.00
64827;BME280;51265;53.972;12.286;2023-05-11T04:44:54;100752.69;;;13.58;100.00
64827;BME280;51265;53.972;12.286;2023-05-11T04:47:20;100756.72;;;13.52;100.00
64827;BME280;51265;53.972;12.286;2023-05-11T04:49:48;100755.59;;;13.53;100.00
64827;BME280;51265;53.972;12.286;2023-05-11T04:52:16;100761.50;;;13.60;100.00
64827;BME280;51265;53.972;12.286;2023-05-11T04:54:45;100762.81;;;13.62;100.00
64827;BME280;51265;53.972;12.286;2023-05-11T04:57:11;100763.50;;;13.68;100.00
64827;BME280;51265;53.972;12.286;2023-05-11T04:59:38;100766.88;;;13.87;100.00
64827;BME280;51265;53.972;12.286;2023-05-11T05:02:05;100762.94;;;14.19;100.00
64827;BME280;51265;53.972;12.286;2023-05-11T05:04:31;100771.75;;;14.61;100.00
64827;BME280;51265;53.972;12.286;2023-05-11T05:06:59;100766.84;;;14.58;100.00
64827;BME280;51265;53.972;12.286;2023-05-11T05:09:26;100771.78;;;14.79;100.00
64827;BME280;51265;53.972;12.286;2023-05-11T05:11:53;100776.06;;;15.28;100.00
64827;BME280;51265;53.972;12.286;2023-05-11T05:14:19;100779.19;;;15.35;100.00
64827;BME280;51265;53.972;12.286;2023-05-11T05:16:45;100775.09;;;15.41;100.00
64827;BME280;51265;53.972;12.286;2023-05-11T05:19:12;100769.22;;;15.69;100.00
64827;BME280;51265;53.972;12.286;2023-05-11T05:21:38;100775.69;;;15.90;100.00
64827;BME280;51265;53.972;12.286;2023-05-11T05:24:06;100765.78;;;16.19;100.00
64827;BME280;51265;53.972;12.286;2023-05-11T05:26:36;100766.00;;;16.43;100.00
64827;BME280;51265;53.972;12.286;2023-05-11T05:29:04;100764.09;;;16.65;98.70
64827;BME280;51265;53.972;12.286;2023-05-11T05:31:31;100765.31;;;16.85;97.23
64827;BME280;51265;53.972;12.286;2023-05-11T05:33:58;100750.53;;;16.93;95.43
64827;BME280;51265;53.972;12.286;2023-05-11T05:36:25;100751.59;;;17.01;94.22
64827;BME280;51265;53.972;12.286;2023-05-11T05:38:51;100748.69;;;17.18;93.55
64827;BME280;51265;53.972;12.286;2023-05-11T05:41:18;100741.72;;;17.45;91.46
64827;BME280;51265;53.972;12.286;2023-05-11T05:43:45;100741.63;;;17.54;89.78
64827;BME280;51265;53.972;12.286;2023-05-11T05:46:12;100737.50;;;17.60;88.67
64827;BME280;51265;53.972;12.286;2023-05-11T05:48:39;100737.59;;;17.63;87.83
64827;BME280;51265;53.972;12.286;2023-05-11T05:51:05;100735.44;;;17.69;86.83
64827;BME280;51265;53.972;12.286;2023-05-11T05:53:32;100743.22;;;17.76;86.12
64827;BME280;51265;53.972;12.286;2023-05-11T05:55:58;100739.16;;;17.73;85.85
64827;BME280;51265;53.972;12.286;2023-05-11T05:58:24;100732.66;;;17.69;85.86
64827;BME280;51265;53.972;12.286;2023-05-11T06:00:51;100734.81;;;17.63;85.70
64827;BME280;51265;53.972;12.286;2023-05-11T06:03:17;100745.59;;;17.53;85.78
64827;BME280;51265;53.972;12.286;2023-05-11T06:05:44;100741.47;;;17.38;86.65
64827;BME280;51265;53.972;12.286;2023-05-11T06:08:11;100751.06;;;17.28;87.16
64827;BME280;51265;53.972;12.286;2023-05-11T06:10:38;100746.72;;;17.18;87.51
64827;BME280;51265;53.972;12.286;2023-05-11T06:13:06;100749.59;;;17.10;87.53
64827;BME280;51265;53.972;12.286;2023-05-11T06:15:34;100752.00;;;17.11;88.27
64827;BME280;51265;53.972;12.286;2023-05-11T06:18:08;100758.38;;;17.12;88.51
64827;BME280;51265;53.972;12.286;2023-05-11T06:20:34;100759.34;;;17.16;89.01
64827;BME280;51265;53.972;12.286;2023-05-11T06:23:03;100751.47;;;17.18;88.89
64827;BME280;51265;53.972;12.286;2023-05-11T06:25:33;100763.06;;;17.20;88.92
64827;BME280;51265;53.972;12.286;2023-05-11T06:28:00;100761.25;;;17.24;88.98
64827;BME280;51265;53.972;12.286;2023-05-11T06:30:27;100754.06;;;17.23;88.83
64827;BME280;51265;53.972;12.286;2023-05-11T06:32:54;100759.69;;;17.35;88.91
64827;BME280;51265;53.972;12.286;2023-05-11T06:35:21;100762.03;;;17.46;88.90
64827;BME280;51265;53.972;12.286;2023-05-11T06:37:48;100758.84;;;17.56;87.92
64827;BME280;51265;53.972;12.286;2023-05-11T06:40:15;100762.44;;;17.56;87.68
64827;BME280;51265;53.972;12.286;2023-05-11T06:42:42;100772.41;;;17.57;87.39
64827;BME280;51265;53.972;12.286;2023-05-11T06:45:10;100761.13;;;17.54;87.52
64827;BME280;51265;53.972;12.286;2023-05-11T06:47:37;100760.06;;;17.46;86.84
64827;BME280;51265;53.972;12.286;2023-05-11T06:50:04;100762.59;;;17.39;86.98
64827;BME280;51265;53.972;12.286;2023-05-11T06:52:31;100762.47;;;17.35;87.24
64827;BME280;51265;53.972;12.286;2023-05-11T06:55:00;100766.00;;;17.24;87.52
64827;BME280;51265;53.972;12.286;2023-05-11T06:57:27;100769.81;;;17.19;88.09
64827;BME280;51265;53.972;12.286;2023-05-11T06:59:53;100775.91;;;17.12;88.33
64827;BME280;51265;53.972;12.286;2023-05-11T07:02:19;100783.38;;;17.21;88.95
64827;BME280;51265;53.972;12.286;2023-05-11T07:04:46;100775.38;;;17.19;88.99
64827;BME280;51265;53.972;12.286;2023-05-11T07:07:12;100790.69;;;17.25;90.03
64827;BME280;51265;53.972;12.286;2023-05-11T07:09:38;100794.31;;;17.59;89.97
64827;BME280;51265;53.972;12.286;2023-05-11T07:12:05;100792.16;;;17.85;89.07
64827;BME280;51265;53.972;12.286;2023-05-11T07:14:31;100781.03;;;18.10;88.01
64827;BME280;51265;53.972;12.286;2023-05-11T07:16:58;100783.06;;;18.46;86.77
64827;BME280;51265;53.972;12.286;2023-05-11T07:19:24;100784.34;;;18.85;84.58
64827;BME280;51265;53.972;12.286;2023-05-11T07:21:51;100769.16;;;19.23;82.26
64827;BME280;51265;53.972;12.286;2023-05-11T07:24:17;100764.50;;;19.43;80.67
64827;BME280;51265;53.972;12.286;2023-05-11T07:26:43;100761.09;;;19.62;78.57
64827;BME280;51265;53.972;12.286;2023-05-11T07:29:10;100748.25;;;19.73;77.82
64827;BME280;51265;53.972;12.286;2023-05-11T07:31:36;100746.09;;;19.82;76.94
64827;BME280;51265;53.972;12.286;2023-05-11T07:34:03;100736.38;;;20.08;76.00
64827;BME280;51265;53.972;12.286;2023-05-11T07:36:30;100729.59;;;20.09;74.16
64827;BME280;51265;53.972;12.286;2023-05-11T07:38:56;100737.53;;;20.23;73.58
64827;BME280;51265;53.972;12.286;2023-05-11T07:41:24;100720.41;;;20.24;73.16
64827;BME280;51265;53.972;12.286;2023-05-11T07:43:53;100723.63;;;20.26;72.54
64827;BME280;51265;53.972;12.286;2023-05-11T07:46:20;100723.72;;;20.30;72.22
64827;BME280;51265;53.972;12.286;2023-05-11T07:48:46;100722.91;;;20.45;72.14
64827;BME280;51265;53.972;12.286;2023-05-11T07:51:12;100720.47;;;20.59;71.96
64827;BME280;51265;53.972;12.286;2023-05-11T07:53:39;100719.91;;;20.70;70.81
64827;BME280;51265;53.972;12.286;2023-05-11T07:56:06;100711.84;;;20.68;70.17
64827;BME280;51265;53.972;12.286;2023-05-11T07:58:32;100718.25;;;21.04;69.97
64827;BME280;51265;53.972;12.286;2023-05-11T08:00:58;100714.03;;;21.13;69.37
64827;BME280;51265;53.972;12.286;2023-05-11T08:03:25;100707.00;;;21.20;69.07
64827;BME280;51265;53.972;12.286;2023-05-11T08:05:51;100704.84;;;21.13;68.29
64827;BME280;51265;53.972;12.286;2023-05-11T08:08:18;100698.41;;;20.93;68.46
64827;BME280;51265;53.972;12.286;2023-05-11T08:10:45;100709.41;;;21.02;68.79
64827;BME280;51265;53.972;12.286;2023-05-11T08:13:11;100708.25;;;21.03;69.05
64827;BME280;51265;53.972;12.286;2023-05-11T08:15:38;100715.63;;;21.11;68.88
64827;BME280;51265;53.972;12.286;2023-05-11T08:18:04;100702.69;;;21.26;68.40
64827;BME280;51265;53.972;12.286;2023-05-11T08:20:31;100709.09;;;21.26;68.36
64827;BME280;51265;53.972;12.286;2023-05-11T08:22:58;100712.50;;;21.16;68.75
64827;BME280;51265;53.972;12.286;2023-05-11T08:25:24;100715.94;;;21.45;68.60
64827;BME280;51265;53.972;12.286;2023-05-11T08:27:50;100700.69;;;21.26;67.84
64827;BME280;51265;53.972;12.286;2023-05-11T08:30:17;100707.00;;;21.39;67.30
64827;BME280;51265;53.972;12.286;2023-05-11T08:32:43;100701.72;;;21.57;67.20
64827;BME280;51265;53.972;12.286;2023-05-11T08:35:10;100701.84;;;21.64;67.23
64827;BME280;51265;53.972;12.286;2023-05-11T08:37:36;100687.09;;;21.67;65.94
64827;BME280;51265;53.972;12.286;2023-05-11T08:40:02;100694.88;;;21.77;65.97
64827;BME280;51265;53.972;12.286;2023-05-11T08:42:32;100686.94;;;21.79;64.72
64827;BME280;51265;53.972;12.286;2023-05-11T08:45:00;100693.84;;;21.85;65.52
64827;BME280;51265;53.972;12.286;2023-05-11T08:47:27;100694.41;;;21.95;64.86
64827;BME280;51265;53.972;12.286;2023-05-11T08:49:59;100678.88;;;22.01;63.96
64827;BME280;51265;53.972;12.286;2023-05-11T08:52:26;100689.19;;;22.43;63.78
64827;BME280;51265;53.972;12.286;2023-05-11T08:54:53;100673.56;;;22.42;63.10
64827;BME280;51265;53.972;12.286;2023-05-11T08:57:19;100672.06;;;22.51;62.05
64827;BME280;51265;53.972;12.286;2023-05-11T08:59:46;100675.56;;;22.71;62.08
64827;BME280;51265;53.972;12.286;2023-05-11T09:02:16;100653.75;;;22.57;62.28
64827;BME280;51265;53.972;12.286;2023-05-11T09:04:43;100647.50;;;22.71;60.37
64827;BME280;51265;53.972;12.286;2023-05-11T09:07:11;100645.31;;;22.87;60.49
64827;BME280;51265;53.972;12.286;2023-05-11T09:09:39;100653.06;;;22.98;60.48
64827;BME280;51265;53.972;12.286;2023-05-11T09:12:08;100629.41;;;22.99;58.64
64827;BME280;51265;53.972;12.286;2023-05-11T09:14:35;100606.06;;;22.91;56.78
64827;BME280;51265;53.972;12.286;2023-05-11T09:17:01;100581.31;;;22.70;55.68
64827;BME280;51265;53.972;12.286;2023-05-11T09:19:29;100579.88;;;22.83;55.33
64827;BME280;51265;53.972;12.286;2023-05-11T09:21:58;100567.25;;;22.67;55.30
64827;BME280;51265;53.972;12.286;2023-05-11T09:24:25;100570.66;;;22.86;55.28
64827;BME280;51265;53.972;12.286;2023-05-11T09:27:13;100574.34;;;22.91;55.29
64827;BME280;51265;53.972;12.286;2023-05-11T09:29:39;100559.44;;;22.86;54.18
64827;BME280;51265;53.972;12.286;2023-05-11T09:32:06;100566.59;;;23.14;53.71
64827;BME280;51265;53.972;12.286;2023-05-11T09:34:32;100546.91;;;23.14;53.42
64827;BME280;51265;53.972;12.286;2023-05-11T09:36:58;100545.91;;;22.92;53.68
64827;BME280;51265;53.972;12.286;2023-05-11T09:39:35;100557.72;;;23.08;54.01
64827;BME280;51265;53.972;12.286;2023-05-11T09:42:16;100545.44;;;23.27;52.78
64827;BME280;51265;53.972;12.286;2023-05-11T09:44:57;100539.13;;;23.38;51.92
64827;BME280;51265;53.972;12.286;2023-05-11T09:47:24;100549.56;;;23.37;52.97
64827;BME280;51265;53.972;12.286;2023-05-11T09:49:50;100562.00;;;23.40;53.56
64827;BME280;51265;53.972;12.286;2023-05-11T09:52:17;100557.19;;;23.40;53.15
64827;BME280;51265;53.972;12.286;2023-05-11T09:54:49;100548.44;;;23.45;52.58
64827;BME280;51265;53.972;12.286;2023-05-11T09:57:30;100548.03;;;23.47;52.29
64827;BME280;51265;53.972;12.286;2023-05-11T09:59:58;100551.88;;;23.72;52.17
64827;BME280;51265;53.972;12.286;2023-05-11T10:02:30;100552.13;;;24.08;51.91
64827;BME280;51265;53.972;12.286;2023-05-11T10:04:58;100519.38;;;23.78;51.27
64827;BME280;51265;53.972;12.286;2023-05-11T10:07:33;100497.97;;;23.63;49.89
64827;BME280;51265;53.972;12.286;2023-05-11T10:10:01;100497.97;;;23.63;50.18
64827;BME280;51265;53.972;12.286;2023-05-11T10:12:28;100483.78;;;23.49;49.91
64827;BME280;51265;53.972;12.286;2023-05-11T10:15:07;100471.38;;;23.50;48.68
64827;BME280;51265;53.972;12.286;2023-05-11T10:17:34;100475.47;;;23.63;48.89
64827;BME280;51265;53.972;12.286;2023-05-11T10:20:03;100476.75;;;23.69;48.68
64827;BME280;51265;53.972;12.286;2023-05-11T10:22:30;100471.25;;;23.91;48.53
64827;BME280;51265;53.972;12.286;2023-05-11T10:24:58;100482.97;;;24.07;48.50
64827;BME280;51265;53.972;12.286;2023-05-11T10:27:25;100449.25;;;24.10;47.18
64827;BME280;51265;53.972;12.286;2023-05-11T10:29:52;100453.69;;;24.15;46.95
64827;BME280;51265;53.972;12.286;2023-05-11T10:32:19;100455.75;;;24.32;47.03
64827;BME280;51265;53.972;12.286;2023-05-11T10:34:46;100464.72;;;24.56;47.53
64827;BME280;51265;53.972;12.286;2023-05-11T10:37:14;100445.06;;;24.77;46.72
64827;BME280;51265;53.972;12.286;2023-05-11T10:39:41;100433.00;;;24.84;45.58
64827;BME280;51265;53.972;12.286;2023-05-11T11:01:39;100444.66;;;22.81;49.30
64827;BME280;51265;53.972;12.286;2023-05-11T11:04:08;100464.25;;;23.15;48.87
64827;BME280;51265;53.972;12.286;2023-05-11T11:06:38;100478.22;;;23.56;48.93
64827;BME280;51265;53.972;12.286;2023-05-11T11:09:14;100490.59;;;24.03;47.95
64827;BME280;51265;53.972;12.286;2023-05-11T11:11:47;100503.78;;;24.75;47.57
64827;BME280;51265;53.972;12.286;2023-05-11T11:14:17;100521.22;;;25.49;47.23
64827;BME280;51265;53.972;12.286;2023-05-11T11:17:21;100510.94;;;26.41;45.40
64827;BME280;51265;53.972;12.286;2023-05-11T11:19:50;100482.09;;;26.89;44.08
64827;BME280;51265;53.972;12.286;2023-05-11T11:32:49;100488.34;;;26.55;44.11
64827;BME280;51265;53.972;12.286;2023-05-11T11:38:07;100462.22;;;27.93;41.58
64827;BME280;51265;53.972;12.286;2023-05-11T11:40:35;100455.22;;;28.39;40.94
64827;BME280;51265;53.972;12.286;2023-05-11T11:43:21;100436.50;;;29.02;39.75
64827;BME280;51265;53.972;12.286;2023-05-11T11:45:59;100403.50;;;29.12;37.86
64827;BME280;51265;53.972;12.286;2023-05-11T11:48:33;100377.09;;;28.92;37.44
64827;BME280;51265;53.972;12.286;2023-05-11T11:51:07;100371.47;;;28.07;37.99
64827;BME280;51265;53.972;12.286;2023-05-11T12:01:12;100378.22;;;26.55;40.52
64827;BME280;51265;53.972;12.286;2023-05-11T12:03:40;100367.88;;;26.23;39.88
64827;BME280;51265;53.972;12.286;2023-05-11T12:06:08;100398.09;;;26.26;41.13
64827;BME280;51265;53.972;12.286;2023-05-11T12:08:36;100394.06;;;26.24;40.67
64827;BME280;51265;53.972;12.286;2023-05-11T12:11:03;100393.28;;;26.23;40.59
64827;BME280;51265;53.972;12.286;2023-05-11T12:13:31;100398.94;;;26.16;40.74
64827;BME280;51265;53.972;12.286;2023-05-11T12:16:14;100379.97;;;26.20;39.71
64827;BME280;51265;53.972;12.286;2023-05-11T12:18:42;100404.00;;;26.53;40.53
64827;BME280;51265;53.972;12.286;2023-05-11T12:21:20;100364.97;;;25.46;41.44
64827;BME280;51265;53.972;12.286;2023-05-11T12:23:54;100358.56;;;24.81;41.56
64827;BME280;51265;53.972;12.286;2023-05-11T12:26:22;100356.53;;;24.64;41.35
64827;BME280;51265;53.972;12.286;2023-05-11T12:28:50;100357.31;;;24.40;41.65
64827;BME280;51265;53.972;12.286;2023-05-11T12:31:19;100377.75;;;24.26;42.41
64827;BME280;51265;53.972;12.286;2023-05-11T12:33:47;100386.59;;;24.17;42.57
64827;BME280;51265;53.972;12.286;2023-05-11T12:36:17;100374.91;;;24.08;41.93
64827;BME280;51265;53.972;12.286;2023-05-11T12:38:44;100383.75;;;24.14;41.81
64827;BME280;51265;53.972;12.286;2023-05-11T12:41:18;100360.44;;;24.20;40.90
64827;BME280;51265;53.972;12.286;2023-05-11T12:43:46;100351.59;;;24.15;41.05
64827;BME280;51265;53.972;12.286;2023-05-11T12:46:13;100360.47;;;24.17;41.40
64827;BME280;51265;53.972;12.286;2023-05-11T12:48:40;100368.03;;;24.02;41.54
64827;BME280;51265;53.972;12.286;2023-05-11T12:51:06;100348.66;;;23.82;41.04
64827;BME280;51265;53.972;12.286;2023-05-11T12:53:37;100326.53;;;23.67;40.58
64827;BME280;51265;53.972;12.286;2023-05-11T12:56:04;100368.09;;;24.16;41.11
64827;BME280;51265;53.972;12.286;2023-05-11T12:58:38;100399.16;;;25.59;38.97
64827;BME280;51265;53.972;12.286;2023-05-11T13:01:06;100396.91;;;26.87;36.94
64827;BME280;51265;53.972;12.286;2023-05-11T13:03:35;100347.31;;;27.30;35.34
64827;BME280;51265;53.972;12.286;2023-05-11T13:06:07;100303.97;;;26.99;35.66
64827;BME280;51265;53.972;12.286;2023-05-11T13:08:39;100325.34;;;27.42;35.39
64827;BME280;51265;53.972;12.286;2023-05-11T13:11:19;100306.84;;;27.34;35.20
64827;BME280;51265;53.972;12.286;2023-05-11T13:13:48;100337.72;;;27.93;35.40
64827;BME280;51265;53.972;12.286;2023-05-11T13:16:30;100318.81;;;27.83;35.58
64827;BME280;51265;53.972;12.286;2023-05-11T13:19:05;100362.03;;;28.98;34.58
64827;BME280;51265;53.972;12.286;2023-05-11T13:21:33;100355.50;;;30.24;32.59
64827;BME280;51265;53.972;12.286;2023-05-11T13:24:00;100343.69;;;31.11;31.77
64827;BME280;51265;53.972;12.286;2023-05-11T13:26:42;100325.25;;;31.16;31.48
64827;BME280;51265;53.972;12.286;2023-05-11T13:29:09;100284.50;;;30.24;31.78
64827;BME280;51265;53.972;12.286;2023-05-11T13:31:49;100223.22;;;27.67;33.39
64827;BME280;51265;53.972;12.286;2023-05-11T13:34:16;100229.81;;;26.88;34.13